Pola Atlantic — 9HA2504 — position and weather

sailwx.info

Track history (hours):
 
Tides and Currents Weather Stations Pressure Air Temp Water Temp Dewpoint Dewpoint Depression Visibility Wind Speed Wind Dir Waves Ship Positions

Pola Atlantic

Last reported at 2017-Nov-18 16:10 UTC. Time now 2017-Nov-22 03:55 UTC.
Position N 01°17' E 104°00'.

Length 180 m; draft 6.7 m.

Type: Cargo ship. MMSI: 248769000.

Date/timePositionNaut miles runAvg speedWind from/ knotsBaromVisibWave heightAir tempDewpointWater temp
2017-Nov-18 16:10N 01°17' E 104°00'1 0.4
2017-Nov-18 13:13N 01°18' E 103°59'0 0.2
2017-Nov-18 12:49N 01°18' E 103°59'0 0.0
2017-Nov-18 12:22N 01°17' E 103°59'0 0.0
2017-Nov-18 11:22N 01°18' E 103°59'0 0.0
2017-Nov-18 10:25N 01°17' E 103°59'0 0.0
2017-Nov-18 07:52N 01°18' E 103°59'0 0.0
2017-Nov-18 07:25N 01°18' E 103°59'0 0.0
2017-Nov-18 06:52N 01°18' E 103°59'0 1.0
2017-Nov-18 06:29N 01°17' E 103°59'1 2.4
2017-Nov-18 05:56N 01°16' E 103°59'2 5.3
2017-Nov-18 05:30N 01°16' E 104°01'3 5.3
2017-Nov-18 05:00N 01°16' E 104°04'2 4.0
2017-Nov-18 04:28N 01°17' E 104°06'2 3.8
2017-Nov-18 03:59N 01°17' E 104°08'  
Track history (hours):
 
Tides and Currents Weather Stations Pressure Air Temp Water Temp Dewpoint Dewpoint Depression Visibility Wind Speed Wind Dir Waves Ship Positions

Pola Atlantic

Last reported at 2017-Nov-18 16:10 UTC. Time now 2017-Nov-22 03:55 UTC.
Position N 01°17' E 104°00'.

Length 180 m; draft 6.7 m.

Type: Cargo ship. MMSI: 248769000.

Date/timePositionNaut miles runAvg speedWind from/ knotsBaromVisibWave heightAir tempDewpointWater temp
2017-Nov-18 16:10N 01°17' E 104°00'1 0.4
2017-Nov-18 13:13N 01°18' E 103°59'0 0.2
2017-Nov-18 12:49N 01°18' E 103°59'0 0.0
2017-Nov-18 12:22N 01°17' E 103°59'0 0.0
2017-Nov-18 11:22N 01°18' E 103°59'0 0.0
2017-Nov-18 10:25N 01°17' E 103°59'0 0.0
2017-Nov-18 07:52N 01°18' E 103°59'0 0.0
2017-Nov-18 07:25N 01°18' E 103°59'0 0.0
2017-Nov-18 06:52N 01°18' E 103°59'0 1.0
2017-Nov-18 06:29N 01°17' E 103°59'1 2.4
2017-Nov-18 05:56N 01°16' E 103°59'2 5.3
2017-Nov-18 05:30N 01°16' E 104°01'3 5.3
2017-Nov-18 05:00N 01°16' E 104°04'2 4.0
2017-Nov-18 04:28N 01°17' E 104°06'2 3.8
2017-Nov-18 03:59N 01°17' E 104°08'  

Dump ship's entire track history